sensor_id;sensor_type;location;lat;lon;timestamp;P1;durP1;ratioP1;P2;durP2;ratioP2
5776;SDS011;2914;42.668;23.346;2022-11-18T00:00:19;34.43;;;18.70;;
5776;SDS011;2914;42.668;23.346;2022-11-18T00:02:56;32.53;;;17.20;;
5776;SDS011;2914;42.668;23.346;2022-11-18T00:05:25;31.63;;;16.90;;
5776;SDS011;2914;42.668;23.346;2022-11-18T00:07:54;40.23;;;18.80;;
5776;SDS011;2914;42.668;23.346;2022-11-18T00:10:24;39.13;;;17.17;;
5776;SDS011;2914;42.668;23.346;2022-11-18T00:12:53;32.90;;;17.10;;
5776;SDS011;2914;42.668;23.346;2022-11-18T00:15:40;38.47;;;16.90;;
5776;SDS011;2914;42.668;23.346;2022-11-18T00:18:09;27.90;;;15.57;;
5776;SDS011;2914;42.668;23.346;2022-11-18T00:20:39;30.20;;;16.50;;
5776;SDS011;2914;42.668;23.346;2022-11-18T00:23:08;29.33;;;16.93;;
5776;SDS011;2914;42.668;23.346;2022-11-18T00:25:38;33.10;;;17.43;;
5776;SDS011;2914;42.668;23.346;2022-11-18T00:28:07;26.60;;;16.80;;
5776;SDS011;2914;42.668;23.346;2022-11-18T00:30:37;33.07;;;18.23;;
5776;SDS011;2914;42.668;23.346;2022-11-18T00:33:07;32.00;;;20.77;;
5776;SDS011;2914;42.668;23.346;2022-11-18T00:35:35;37.37;;;19.37;;
5776;SDS011;2914;42.668;23.346;2022-11-18T00:38:05;34.03;;;19.10;;
5776;SDS011;2914;42.668;23.346;2022-11-18T00:40:35;41.00;;;21.40;;
5776;SDS011;2914;42.668;23.346;2022-11-18T00:43:20;37.67;;;19.30;;
5776;SDS011;2914;42.668;23.346;2022-11-18T00:45:49;31.80;;;18.40;;
5776;SDS011;2914;42.668;23.346;2022-11-18T00:48:20;28.00;;;16.53;;
5776;SDS011;2914;42.668;23.346;2022-11-18T00:50:50;33.77;;;18.30;;
5776;SDS011;2914;42.668;23.346;2022-11-18T00:53:21;36.17;;;16.60;;
5776;SDS011;2914;42.668;23.346;2022-11-18T00:55:51;35.93;;;18.57;;
5776;SDS011;2914;42.668;23.346;2022-11-18T00:58:20;32.87;;;16.93;;
5776;SDS011;2914;42.668;23.346;2022-11-18T01:00:50;39.57;;;18.30;;
5776;SDS011;2914;42.668;23.346;2022-11-18T01:03:19;24.60;;;16.10;;
5776;SDS011;2914;42.668;23.346;2022-11-18T01:05:50;32.87;;;17.40;;
5776;SDS011;2914;42.668;23.346;2022-11-18T01:08:19;30.53;;;18.00;;
5776;SDS011;2914;42.668;23.346;2022-11-18T01:10:49;33.40;;;16.43;;
5776;SDS011;2914;42.668;23.346;2022-11-18T01:13:19;26.20;;;15.60;;
5776;SDS011;2914;42.668;23.346;2022-11-18T01:15:57;39.37;;;17.70;;
5776;SDS011;2914;42.668;23.346;2022-11-18T01:18:28;30.33;;;15.50;;
5776;SDS011;2914;42.668;23.346;2022-11-18T01:20:59;22.10;;;13.90;;
5776;SDS011;2914;42.668;23.346;2022-11-18T01:23:29;25.37;;;15.47;;
5776;SDS011;2914;42.668;23.346;2022-11-18T01:26:02;25.47;;;15.77;;
5776;SDS011;2914;42.668;23.346;2022-11-18T01:28:32;29.33;;;17.77;;
5776;SDS011;2914;42.668;23.346;2022-11-18T01:31:03;34.20;;;16.00;;
5776;SDS011;2914;42.668;23.346;2022-11-18T01:33:33;29.17;;;17.17;;
5776;SDS011;2914;42.668;23.346;2022-11-18T01:36:02;37.67;;;17.80;;
5776;SDS011;2914;42.668;23.346;2022-11-18T01:38:33;33.57;;;16.80;;
5776;SDS011;2914;42.668;23.346;2022-11-18T01:41:02;27.13;;;17.13;;
5776;SDS011;2914;42.668;23.346;2022-11-18T01:43:46;31.10;;;16.40;;
5776;SDS011;2914;42.668;23.346;2022-11-18T01:46:20;33.13;;;16.47;;
5776;SDS011;2914;42.668;23.346;2022-11-18T01:48:52;47.47;;;16.43;;
5776;SDS011;2914;42.668;23.346;2022-11-18T01:51:25;30.50;;;16.53;;
5776;SDS011;2914;42.668;23.346;2022-11-18T01:53:57;31.10;;;17.17;;
5776;SDS011;2914;42.668;23.346;2022-11-18T01:56:30;29.33;;;16.90;;
5776;SDS011;2914;42.668;23.346;2022-11-18T01:59:04;32.47;;;15.60;;
5776;SDS011;2914;42.668;23.346;2022-11-18T02:01:34;42.17;;;20.40;;
5776;SDS011;2914;42.668;23.346;2022-11-18T02:04:12;33.40;;;19.57;;
5776;SDS011;2914;42.668;23.346;2022-11-18T02:06:42;46.17;;;22.00;;
5776;SDS011;2914;42.668;23.346;2022-11-18T02:09:13;36.27;;;17.30;;
5776;SDS011;2914;42.668;23.346;2022-11-18T02:11:43;54.73;;;24.13;;
5776;SDS011;2914;42.668;23.346;2022-11-18T02:14:19;34.30;;;19.70;;
5776;SDS011;2914;42.668;23.346;2022-11-18T02:16:55;43.60;;;20.67;;
5776;SDS011;2914;42.668;23.346;2022-11-18T02:22:45;37.03;;;16.90;;
5776;SDS011;2914;42.668;23.346;2022-11-18T02:25:25;39.03;;;20.13;;
5776;SDS011;2914;42.668;23.346;2022-11-18T02:28:07;46.33;;;20.27;;
5776;SDS011;2914;42.668;23.346;2022-11-18T02:31:06;41.13;;;22.13;;
5776;SDS011;2914;42.668;23.346;2022-11-18T02:33:38;36.27;;;19.17;;
5776;SDS011;2914;42.668;23.346;2022-11-18T02:36:17;47.37;;;25.90;;
5776;SDS011;2914;42.668;23.346;2022-11-18T02:38:50;42.40;;;22.10;;
5776;SDS011;2914;42.668;23.346;2022-11-18T02:41:27;47.37;;;23.90;;
5776;SDS011;2914;42.668;23.346;2022-11-18T02:43:59;39.40;;;20.97;;
5776;SDS011;2914;42.668;23.346;2022-11-18T02:46:32;42.33;;;20.77;;
5776;SDS011;2914;42.668;23.346;2022-11-18T02:49:05;49.00;;;24.33;;
5776;SDS011;2914;42.668;23.346;2022-11-18T02:51:36;48.53;;;22.27;;
5776;SDS011;2914;42.668;23.346;2022-11-18T02:54:06;40.60;;;22.03;;
5776;SDS011;2914;42.668;23.346;2022-11-18T02:56:36;37.27;;;21.57;;
5776;SDS011;2914;42.668;23.346;2022-11-18T02:59:06;48.30;;;20.30;;
5776;SDS011;2914;42.668;23.346;2022-11-18T03:01:36;43.27;;;21.90;;
5776;SDS011;2914;42.668;23.346;2022-11-18T03:04:06;42.43;;;20.23;;
5776;SDS011;2914;42.668;23.346;2022-11-18T03:06:36;35.77;;;19.80;;
5776;SDS011;2914;42.668;23.346;2022-11-18T03:09:08;40.07;;;21.83;;
5776;SDS011;2914;42.668;23.346;2022-11-18T03:11:43;48.90;;;25.07;;
5776;SDS011;2914;42.668;23.346;2022-11-18T03:14:23;34.67;;;20.37;;
5776;SDS011;2914;42.668;23.346;2022-11-18T03:16:57;35.97;;;20.00;;
5776;SDS011;2914;42.668;23.346;2022-11-18T03:19:38;40.40;;;22.80;;
5776;SDS011;2914;42.668;23.346;2022-11-18T03:22:11;40.60;;;21.40;;
5776;SDS011;2914;42.668;23.346;2022-11-18T03:24:43;38.90;;;23.13;;
5776;SDS011;2914;42.668;23.346;2022-11-18T03:27:23;38.50;;;21.80;;
5776;SDS011;2914;42.668;23.346;2022-11-18T03:29:55;47.27;;;24.20;;
5776;SDS011;2914;42.668;23.346;2022-11-18T03:32:43;33.73;;;22.10;;
5776;SDS011;2914;42.668;23.346;2022-11-18T03:38:13;34.80;;;23.20;;
5776;SDS011;2914;42.668;23.346;2022-11-18T03:40:45;48.80;;;24.20;;
5776;SDS011;2914;42.668;23.346;2022-11-18T03:43:17;35.80;;;22.60;;
5776;SDS011;2914;42.668;23.346;2022-11-18T03:45:49;49.10;;;23.23;;
5776;SDS011;2914;42.668;23.346;2022-11-18T03:48:22;41.07;;;22.67;;
5776;SDS011;2914;42.668;23.346;2022-11-18T03:50:53;46.70;;;22.97;;
5776;SDS011;2914;42.668;23.346;2022-11-18T03:53:25;46.73;;;23.80;;
5776;SDS011;2914;42.668;23.346;2022-11-18T03:55:57;43.27;;;24.00;;
5776;SDS011;2914;42.668;23.346;2022-11-18T03:58:30;47.93;;;25.67;;
5776;SDS011;2914;42.668;23.346;2022-11-18T04:01:03;45.63;;;25.13;;
5776;SDS011;2914;42.668;23.346;2022-11-18T04:03:40;56.20;;;25.07;;
5776;SDS011;2914;42.668;23.346;2022-11-18T04:06:12;53.43;;;25.60;;
5776;SDS011;2914;42.668;23.346;2022-11-18T04:08:43;74.83;;;37.43;;
5776;SDS011;2914;42.668;23.346;2022-11-18T04:11:15;48.10;;;26.27;;
5776;SDS011;2914;42.668;23.346;2022-11-18T04:14:06;100.50;;;51.63;;
5776;SDS011;2914;42.668;23.346;2022-11-18T04:16:38;54.90;;;27.67;;
5776;SDS011;2914;42.668;23.346;2022-11-18T04:19:08;83.83;;;27.80;;
5776;SDS011;2914;42.668;23.346;2022-11-18T04:21:39;82.23;;;28.73;;
5776;SDS011;2914;42.668;23.346;2022-11-18T04:24:08;106.53;;;27.37;;
5776;SDS011;2914;42.668;23.346;2022-11-18T04:26:37;103.33;;;31.87;;
5776;SDS011;2914;42.668;23.346;2022-11-18T04:29:06;68.83;;;25.87;;
5776;SDS011;2914;42.668;23.346;2022-11-18T04:31:36;81.40;;;28.53;;
5776;SDS011;2914;42.668;23.346;2022-11-18T04:34:05;98.93;;;28.43;;
5776;SDS011;2914;42.668;23.346;2022-11-18T04:36:34;141.07;;;28.97;;
5776;SDS011;2914;42.668;23.346;2022-11-18T04:39:03;244.97;;;42.20;;
5776;SDS011;2914;42.668;23.346;2022-11-18T04:41:35;138.53;;;33.50;;
5776;SDS011;2914;42.668;23.346;2022-11-18T04:44:23;138.07;;;31.37;;
5776;SDS011;2914;42.668;23.346;2022-11-18T04:46:55;126.67;;;34.20;;
5776;SDS011;2914;42.668;23.346;2022-11-18T04:49:33;118.00;;;33.73;;
5776;SDS011;2914;42.668;23.346;2022-11-18T04:52:02;99.23;;;35.90;;
5776;SDS011;2914;42.668;23.346;2022-11-18T04:54:32;135.73;;;31.33;;
5776;SDS011;2914;42.668;23.346;2022-11-18T04:57:01;128.20;;;33.93;;
5776;SDS011;2914;42.668;23.346;2022-11-18T04:59:32;106.03;;;32.33;;
5776;SDS011;2914;42.668;23.346;2022-11-18T05:02:01;106.73;;;32.47;;
5776;SDS011;2914;42.668;23.346;2022-11-18T05:04:31;162.77;;;36.97;;
5776;SDS011;2914;42.668;23.346;2022-11-18T05:07:02;90.20;;;34.13;;
5776;SDS011;2914;42.668;23.346;2022-11-18T05:09:33;105.47;;;35.37;;
5776;SDS011;2914;42.668;23.346;2022-11-18T05:12:11;235.27;;;41.67;;
5776;SDS011;2914;42.668;23.346;2022-11-18T05:15:00;108.87;;;31.10;;
5776;SDS011;2914;42.668;23.346;2022-11-18T05:17:44;99.70;;;37.87;;
5776;SDS011;2914;42.668;23.346;2022-11-18T05:20:14;113.83;;;43.47;;
5776;SDS011;2914;42.668;23.346;2022-11-18T05:22:44;123.60;;;36.80;;
5776;SDS011;2914;42.668;23.346;2022-11-18T05:25:15;72.40;;;31.70;;
5776;SDS011;2914;42.668;23.346;2022-11-18T05:27:44;183.87;;;32.07;;
5776;SDS011;2914;42.668;23.346;2022-11-18T05:30:13;82.60;;;29.33;;
5776;SDS011;2914;42.668;23.346;2022-11-18T05:35:08;82.93;;;28.83;;
5776;SDS011;2914;42.668;23.346;2022-11-18T05:37:37;156.87;;;27.83;;
5776;SDS011;2914;42.668;23.346;2022-11-18T05:40:08;63.00;;;28.97;;
5776;SDS011;2914;42.668;23.346;2022-11-18T05:42:39;49.23;;;20.63;;
5776;SDS011;2914;42.668;23.346;2022-11-18T05:45:25;222.60;;;32.20;;
5776;SDS011;2914;42.668;23.346;2022-11-18T05:47:54;112.53;;;32.17;;
5776;SDS011;2914;42.668;23.346;2022-11-18T05:50:28;81.17;;;30.53;;
5776;SDS011;2914;42.668;23.346;2022-11-18T05:52:58;67.03;;;29.17;;
5776;SDS011;2914;42.668;23.346;2022-11-18T05:55:34;54.33;;;29.20;;
5776;SDS011;2914;42.668;23.346;2022-11-18T05:58:12;132.07;;;28.40;;
5776;SDS011;2914;42.668;23.346;2022-11-18T06:00:42;193.17;;;26.70;;
5776;SDS011;2914;42.668;23.346;2022-11-18T06:03:14;149.83;;;29.73;;
5776;SDS011;2914;42.668;23.346;2022-11-18T06:05:52;125.13;;;29.90;;
5776;SDS011;2914;42.668;23.346;2022-11-18T06:08:23;126.70;;;28.70;;
5776;SDS011;2914;42.668;23.346;2022-11-18T06:10:55;66.50;;;27.50;;
5776;SDS011;2914;42.668;23.346;2022-11-18T06:13:27;64.10;;;27.80;;
5776;SDS011;2914;42.668;23.346;2022-11-18T06:15:58;145.93;;;27.67;;
5776;SDS011;2914;42.668;23.346;2022-11-18T06:18:29;108.90;;;26.97;;
5776;SDS011;2914;42.668;23.346;2022-11-18T06:21:00;71.90;;;26.97;;
5776;SDS011;2914;42.668;23.346;2022-11-18T06:23:32;93.40;;;27.40;;
5776;SDS011;2914;42.668;23.346;2022-11-18T06:26:11;149.20;;;28.00;;
5776;SDS011;2914;42.668;23.346;2022-11-18T06:28:42;135.90;;;26.07;;
5776;SDS011;2914;42.668;23.346;2022-11-18T06:31:14;138.97;;;27.80;;
5776;SDS011;2914;42.668;23.346;2022-11-18T06:33:43;218.83;;;27.97;;
5776;SDS011;2914;42.668;23.346;2022-11-18T06:36:20;90.77;;;29.40;;
5776;SDS011;2914;42.668;23.346;2022-11-18T06:38:51;71.37;;;29.07;;
5776;SDS011;2914;42.668;23.346;2022-11-18T06:44:13;112.83;;;28.03;;
5776;SDS011;2914;42.668;23.346;2022-11-18T06:46:42;141.27;;;27.67;;
5776;SDS011;2914;42.668;23.346;2022-11-18T06:49:26;100.23;;;25.23;;
5776;SDS011;2914;42.668;23.346;2022-11-18T06:51:55;171.13;;;20.40;;
5776;SDS011;2914;42.668;23.346;2022-11-18T06:54:35;69.20;;;23.90;;
5776;SDS011;2914;42.668;23.346;2022-11-18T06:57:15;67.93;;;24.37;;
5776;SDS011;2914;42.668;23.346;2022-11-18T06:59:45;147.70;;;24.67;;
5776;SDS011;2914;42.668;23.346;2022-11-18T07:02:15;189.73;;;25.43;;
5776;SDS011;2914;42.668;23.346;2022-11-18T07:04:44;66.00;;;25.73;;
5776;SDS011;2914;42.668;23.346;2022-11-18T07:07:13;135.50;;;27.20;;
5776;SDS011;2914;42.668;23.346;2022-11-18T07:09:42;98.43;;;27.30;;
5776;SDS011;2914;42.668;23.346;2022-11-18T07:12:11;171.10;;;25.87;;
5776;SDS011;2914;42.668;23.346;2022-11-18T07:14:40;194.60;;;26.83;;
5776;SDS011;2914;42.668;23.346;2022-11-18T07:17:13;263.67;;;25.97;;
5776;SDS011;2914;42.668;23.346;2022-11-18T07:19:44;162.93;;;25.00;;
5776;SDS011;2914;42.668;23.346;2022-11-18T07:22:13;89.00;;;26.17;;
5776;SDS011;2914;42.668;23.346;2022-11-18T07:24:43;184.17;;;27.60;;
5776;SDS011;2914;42.668;23.346;2022-11-18T07:27:12;59.20;;;21.90;;
5776;SDS011;2914;42.668;23.346;2022-11-18T07:29:41;105.00;;;21.47;;
5776;SDS011;2914;42.668;23.346;2022-11-18T07:32:10;159.83;;;21.57;;
5776;SDS011;2914;42.668;23.346;2022-11-18T07:34:39;139.37;;;22.40;;
5776;SDS011;2914;42.668;23.346;2022-11-18T07:37:10;152.83;;;23.27;;
5776;SDS011;2914;42.668;23.346;2022-11-18T07:39:39;87.90;;;22.60;;
5776;SDS011;2914;42.668;23.346;2022-11-18T07:42:08;50.60;;;19.60;;
5776;SDS011;2914;42.668;23.346;2022-11-18T07:44:46;84.83;;;20.33;;
5776;SDS011;2914;42.668;23.346;2022-11-18T07:47:16;119.13;;;20.80;;
5776;SDS011;2914;42.668;23.346;2022-11-18T07:49:47;99.53;;;21.60;;
5776;SDS011;2914;42.668;23.346;2022-11-18T07:52:21;119.30;;;23.10;;
5776;SDS011;2914;42.668;23.346;2022-11-18T07:54:50;70.73;;;23.77;;
5776;SDS011;2914;42.668;23.346;2022-11-18T07:57:20;116.23;;;23.73;;
5776;SDS011;2914;42.668;23.346;2022-11-18T07:59:49;188.50;;;25.57;;
5776;SDS011;2914;42.668;23.346;2022-11-18T08:02:18;95.73;;;21.77;;
5776;SDS011;2914;42.668;23.346;2022-11-18T08:04:47;67.30;;;23.27;;
5776;SDS011;2914;42.668;23.346;2022-11-18T08:07:16;84.53;;;22.67;;
5776;SDS011;2914;42.668;23.346;2022-11-18T08:09:45;90.13;;;25.17;;
5776;SDS011;2914;42.668;23.346;2022-11-18T08:12:14;67.40;;;22.57;;
5776;SDS011;2914;42.668;23.346;2022-11-18T08:14:43;95.27;;;22.17;;
5776;SDS011;2914;42.668;23.346;2022-11-18T08:17:15;127.50;;;24.00;;
5776;SDS011;2914;42.668;23.346;2022-11-18T08:19:46;67.13;;;24.30;;
5776;SDS011;2914;42.668;23.346;2022-11-18T08:22:15;118.67;;;23.37;;
5776;SDS011;2914;42.668;23.346;2022-11-18T08:24:46;87.43;;;26.87;;
5776;SDS011;2914;42.668;23.346;2022-11-18T08:27:15;72.93;;;24.30;;
5776;SDS011;2914;42.668;23.346;2022-11-18T08:29:44;89.20;;;25.80;;
5776;SDS011;2914;42.668;23.346;2022-11-18T08:32:13;108.60;;;26.47;;
5776;SDS011;2914;42.668;23.346;2022-11-18T08:34:42;79.40;;;26.40;;
5776;SDS011;2914;42.668;23.346;2022-11-18T08:37:11;108.53;;;27.10;;
5776;SDS011;2914;42.668;23.346;2022-11-18T08:39:41;99.00;;;27.63;;
5776;SDS011;2914;42.668;23.346;2022-11-18T08:42:10;118.20;;;28.70;;
5776;SDS011;2914;42.668;23.346;2022-11-18T08:44:41;121.77;;;26.93;;
5776;SDS011;2914;42.668;23.346;2022-11-18T08:47:10;76.00;;;27.53;;
5776;SDS011;2914;42.668;23.346;2022-11-18T08:49:39;138.77;;;31.17;;
5776;SDS011;2914;42.668;23.346;2022-11-18T08:52:11;109.90;;;27.37;;
5776;SDS011;2914;42.668;23.346;2022-11-18T08:54:40;115.97;;;28.33;;
5776;SDS011;2914;42.668;23.346;2022-11-18T08:57:09;173.50;;;28.57;;
5776;SDS011;2914;42.668;23.346;2022-11-18T08:59:38;79.37;;;27.90;;
5776;SDS011;2914;42.668;23.346;2022-11-18T09:02:12;80.27;;;27.90;;
5776;SDS011;2914;42.668;23.346;2022-11-18T09:04:45;132.63;;;29.37;;
5776;SDS011;2914;42.668;23.346;2022-11-18T09:07:15;79.93;;;29.13;;
5776;SDS011;2914;42.668;23.346;2022-11-18T09:09:44;107.60;;;30.00;;
5776;SDS011;2914;42.668;23.346;2022-11-18T09:12:13;67.07;;;27.93;;
5776;SDS011;2914;42.668;23.346;2022-11-18T09:14:43;87.60;;;31.00;;
5776;SDS011;2914;42.668;23.346;2022-11-18T09:17:12;77.63;;;28.47;;
5776;SDS011;2914;42.668;23.346;2022-11-18T09:19:41;84.63;;;29.20;;
5776;SDS011;2914;42.668;23.346;2022-11-18T09:22:10;94.17;;;30.40;;
5776;SDS011;2914;42.668;23.346;2022-11-18T09:24:39;116.30;;;31.87;;
5776;SDS011;2914;42.668;23.346;2022-11-18T09:27:11;88.20;;;29.20;;
5776;SDS011;2914;42.668;23.346;2022-11-18T09:29:40;80.37;;;28.80;;
5776;SDS011;2914;42.668;23.346;2022-11-18T09:32:09;58.47;;;26.60;;
5776;SDS011;2914;42.668;23.346;2022-11-18T09:34:38;75.77;;;25.00;;
5776;SDS011;2914;42.668;23.346;2022-11-18T09:37:07;70.80;;;25.70;;
5776;SDS011;2914;42.668;23.346;2022-11-18T09:39:36;49.33;;;23.40;;
5776;SDS011;2914;42.668;23.346;2022-11-18T09:42:15;65.00;;;23.70;;
5776;SDS011;2914;42.668;23.346;2022-11-18T09:44:54;69.63;;;26.60;;
5776;SDS011;2914;42.668;23.346;2022-11-18T09:47:29;54.67;;;24.00;;
5776;SDS011;2914;42.668;23.346;2022-11-18T09:49:59;50.40;;;22.70;;
5776;SDS011;2914;42.668;23.346;2022-11-18T09:52:31;52.10;;;24.27;;
5776;SDS011;2914;42.668;23.346;2022-11-18T09:55:07;59.00;;;24.87;;
5776;SDS011;2914;42.668;23.346;2022-11-18T09:57:40;71.47;;;28.57;;
5776;SDS011;2914;42.668;23.346;2022-11-18T10:00:21;72.27;;;26.90;;
5776;SDS011;2914;42.668;23.346;2022-11-18T10:02:54;65.33;;;27.20;;
5776;SDS011;2914;42.668;23.346;2022-11-18T10:05:27;58.83;;;26.90;;
5776;SDS011;2914;42.668;23.346;2022-11-18T10:08:07;73.20;;;30.50;;
5776;SDS011;2914;42.668;23.346;2022-11-18T10:10:43;78.87;;;28.87;;
5776;SDS011;2914;42.668;23.346;2022-11-18T10:13:25;88.93;;;29.63;;
5776;SDS011;2914;42.668;23.346;2022-11-18T10:15:58;65.90;;;26.17;;
5776;SDS011;2914;42.668;23.346;2022-11-18T10:18:32;80.97;;;29.57;;
5776;SDS011;2914;42.668;23.346;2022-11-18T10:21:05;71.37;;;28.53;;
5776;SDS011;2914;42.668;23.346;2022-11-18T10:23:37;85.17;;;30.93;;
5776;SDS011;2914;42.668;23.346;2022-11-18T10:26:08;81.93;;;30.90;;
5776;SDS011;2914;42.668;23.346;2022-11-18T10:28:37;74.57;;;30.50;;
5776;SDS011;2914;42.668;23.346;2022-11-18T10:31:06;84.50;;;32.83;;
5776;SDS011;2914;42.668;23.346;2022-11-18T10:33:37;102.53;;;36.70;;
5776;SDS011;2914;42.668;23.346;2022-11-18T10:36:13;85.13;;;31.47;;
5776;SDS011;2914;42.668;23.346;2022-11-18T10:38:51;89.60;;;33.67;;
5776;SDS011;2914;42.668;23.346;2022-11-18T10:41:35;75.07;;;30.73;;
5776;SDS011;2914;42.668;23.346;2022-11-18T10:44:08;75.13;;;30.83;;
5776;SDS011;2914;42.668;23.346;2022-11-18T10:46:55;75.10;;;31.13;;
5776;SDS011;2914;42.668;23.346;2022-11-18T10:49:43;70.20;;;30.63;;
5776;SDS011;2914;42.668;23.346;2022-11-18T10:52:12;63.73;;;27.50;;
5776;SDS011;2914;42.668;23.346;2022-11-18T10:54:41;62.27;;;27.27;;
5776;SDS011;2914;42.668;23.346;2022-11-18T10:57:15;72.57;;;28.67;;
5776;SDS011;2914;42.668;23.346;2022-11-18T10:59:46;75.80;;;30.60;;
5776;SDS011;2914;42.668;23.346;2022-11-18T11:02:17;88.60;;;30.93;;
5776;SDS011;2914;42.668;23.346;2022-11-18T11:04:48;87.17;;;32.33;;
5776;SDS011;2914;42.668;23.346;2022-11-18T11:07:26;98.47;;;32.97;;
5776;SDS011;2914;42.668;23.346;2022-11-18T11:10:01;90.53;;;33.33;;
5776;SDS011;2914;42.668;23.346;2022-11-18T11:12:43;96.43;;;37.40;;
5776;SDS011;2914;42.668;23.346;2022-11-18T11:15:16;100.17;;;32.77;;
5776;SDS011;2914;42.668;23.346;2022-11-18T11:17:47;95.03;;;34.77;;
5776;SDS011;2914;42.668;23.346;2022-11-18T11:20:22;77.47;;;31.00;;
5776;SDS011;2914;42.668;23.346;2022-11-18T11:22:52;67.83;;;29.43;;
5776;SDS011;2914;42.668;23.346;2022-11-18T11:25:25;69.10;;;29.30;;
5776;SDS011;2914;42.668;23.346;2022-11-18T11:27:57;67.73;;;30.70;;
5776;SDS011;2914;42.668;23.346;2022-11-18T11:30:29;67.93;;;30.70;;
5776;SDS011;2914;42.668;23.346;2022-11-18T11:33:15;75.97;;;31.13;;
5776;SDS011;2914;42.668;23.346;2022-11-18T11:36:06;78.03;;;31.47;;
5776;SDS011;2914;42.668;23.346;2022-11-18T11:38:47;84.37;;;30.40;;
5776;SDS011;2914;42.668;23.346;2022-11-18T11:41:24;69.50;;;26.27;;
5776;SDS011;2914;42.668;23.346;2022-11-18T11:44:01;62.43;;;27.63;;
5776;SDS011;2914;42.668;23.346;2022-11-18T11:46:50;56.37;;;26.87;;
5776;SDS011;2914;42.668;23.346;2022-11-18T11:49:44;55.87;;;24.20;;
5776;SDS011;2914;42.668;23.346;2022-11-18T11:52:19;39.43;;;18.90;;
5776;SDS011;2914;42.668;23.346;2022-11-18T11:54:53;62.10;;;22.80;;
5776;SDS011;2914;42.668;23.346;2022-11-18T11:57:27;49.90;;;20.57;;
5776;SDS011;2914;42.668;23.346;2022-11-18T12:00:00;26.40;;;13.97;;
5776;SDS011;2914;42.668;23.346;2022-11-18T12:02:34;24.50;;;10.83;;
5776;SDS011;2914;42.668;23.346;2022-11-18T12:05:18;23.73;;;12.17;;
5776;SDS011;2914;42.668;23.346;2022-11-18T12:07:50;29.77;;;14.10;;
5776;SDS011;2914;42.668;23.346;2022-11-18T12:10:27;43.10;;;15.03;;
5776;SDS011;2914;42.668;23.346;2022-11-18T12:13:13;38.83;;;15.67;;
5776;SDS011;2914;42.668;23.346;2022-11-18T12:16:00;39.00;;;16.20;;
5776;SDS011;2914;42.668;23.346;2022-11-18T12:18:38;31.90;;;16.80;;
5776;SDS011;2914;42.668;23.346;2022-11-18T12:21:09;31.07;;;16.53;;
5776;SDS011;2914;42.668;23.346;2022-11-18T12:24:23;30.77;;;17.50;;
5776;SDS011;2914;42.668;23.346;2022-11-18T12:27:01;27.93;;;16.60;;
5776;SDS011;2914;42.668;23.346;2022-11-18T12:29:42;39.53;;;18.13;;
5776;SDS011;2914;42.668;23.346;2022-11-18T12:32:28;31.10;;;16.10;;
5776;SDS011;2914;42.668;23.346;2022-11-18T12:35:20;31.53;;;16.57;;
5776;SDS011;2914;42.668;23.346;2022-11-18T12:37:57;27.73;;;14.93;;
5776;SDS011;2914;42.668;23.346;2022-11-18T12:40:33;22.30;;;12.53;;
5776;SDS011;2914;42.668;23.346;2022-11-18T12:43:03;29.63;;;13.07;;
5776;SDS011;2914;42.668;23.346;2022-11-18T12:45:55;39.10;;;14.90;;
5776;SDS011;2914;42.668;23.346;2022-11-18T12:48:45;18.73;;;10.80;;
5776;SDS011;2914;42.668;23.346;2022-11-18T12:54:30;33.23;;;15.03;;
5776;SDS011;2914;42.668;23.346;2022-11-18T12:57:02;27.70;;;14.10;;
5776;SDS011;2914;42.668;23.346;2022-11-18T12:59:34;31.87;;;16.50;;
5776;SDS011;2914;42.668;23.346;2022-11-18T13:02:05;31.70;;;17.23;;
5776;SDS011;2914;42.668;23.346;2022-11-18T13:05:01;34.60;;;16.97;;
5776;SDS011;2914;42.668;23.346;2022-11-18T13:07:34;33.77;;;16.03;;
5776;SDS011;2914;42.668;23.346;2022-11-18T13:10:26;29.23;;;14.63;;
5776;SDS011;2914;42.668;23.346;2022-11-18T13:12:57;43.60;;;17.63;;
5776;SDS011;2914;42.668;23.346;2022-11-18T13:15:26;26.00;;;12.50;;
5776;SDS011;2914;42.668;23.346;2022-11-18T13:18:14;31.53;;;12.37;;
5776;SDS011;2914;42.668;23.346;2022-11-18T13:20:53;25.77;;;10.83;;
5776;SDS011;2914;42.668;23.346;2022-11-18T13:23:25;23.50;;;13.10;;
5776;SDS011;2914;42.668;23.346;2022-11-18T13:26:15;28.80;;;13.30;;
5776;SDS011;2914;42.668;23.346;2022-11-18T13:28:53;21.40;;;11.70;;
5776;SDS011;2914;42.668;23.346;2022-11-18T13:31:28;32.70;;;11.60;;
5776;SDS011;2914;42.668;23.346;2022-11-18T13:34:09;17.10;;;10.20;;
5776;SDS011;2914;42.668;23.346;2022-11-18T13:36:41;24.43;;;10.57;;
5776;SDS011;2914;42.668;23.346;2022-11-18T13:39:16;15.83;;;7.63;;
5776;SDS011;2914;42.668;23.346;2022-11-18T13:41:57;14.10;;;6.83;;
5776;SDS011;2914;42.668;23.346;2022-11-18T13:44:28;21.40;;;8.80;;
5776;SDS011;2914;42.668;23.346;2022-11-18T13:47:00;15.40;;;8.27;;
5776;SDS011;2914;42.668;23.346;2022-11-18T13:49:44;29.80;;;9.47;;
5776;SDS011;2914;42.668;23.346;2022-11-18T13:52:16;15.70;;;8.63;;
5776;SDS011;2914;42.668;23.346;2022-11-18T13:54:48;9.47;;;5.13;;
5776;SDS011;2914;42.668;23.346;2022-11-18T13:57:20;9.90;;;6.40;;
5776;SDS011;2914;42.668;23.346;2022-11-18T13:59:52;19.33;;;8.60;;
5776;SDS011;2914;42.668;23.346;2022-11-18T14:02:53;15.73;;;7.27;;
5776;SDS011;2914;42.668;23.346;2022-11-18T14:05:24;10.63;;;5.37;;
5776;SDS011;2914;42.668;23.346;2022-11-18T14:07:59;12.27;;;4.50;;
5776;SDS011;2914;42.668;23.346;2022-11-18T14:10:32;34.33;;;12.90;;
5776;SDS011;2914;42.668;23.346;2022-11-18T14:13:15;17.20;;;7.83;;
5776;SDS011;2914;42.668;23.346;2022-11-18T14:15:47;25.67;;;9.03;;
5776;SDS011;2914;42.668;23.346;2022-11-18T14:18:20;15.70;;;6.80;;
5776;SDS011;2914;42.668;23.346;2022-11-18T14:21:00;16.10;;;7.03;;
5776;SDS011;2914;42.668;23.346;2022-11-18T14:23:32;13.77;;;6.03;;
5776;SDS011;2914;42.668;23.346;2022-11-18T14:26:03;17.57;;;7.00;;
5776;SDS011;2914;42.668;23.346;2022-11-18T14:28:34;18.40;;;5.43;;
5776;SDS011;2914;42.668;23.346;2022-11-18T14:31:05;11.50;;;5.03;;
5776;SDS011;2914;42.668;23.346;2022-11-18T14:33:42;11.20;;;5.97;;
5776;SDS011;2914;42.668;23.346;2022-11-18T14:36:23;12.17;;;6.50;;
5776;SDS011;2914;42.668;23.346;2022-11-18T14:38:53;10.50;;;4.87;;
5776;SDS011;2914;42.668;23.346;2022-11-18T14:41:22;6.63;;;4.20;;
5776;SDS011;2914;42.668;23.346;2022-11-18T14:44:10;8.87;;;4.40;;
5776;SDS011;2914;42.668;23.346;2022-11-18T14:46:40;24.83;;;7.07;;
5776;SDS011;2914;42.668;23.346;2022-11-18T14:49:11;5.50;;;3.30;;
5776;SDS011;2914;42.668;23.346;2022-11-18T14:51:43;12.97;;;5.10;;
5776;SDS011;2914;42.668;23.346;2022-11-18T14:54:13;7.00;;;2.83;;
5776;SDS011;2914;42.668;23.346;2022-11-18T14:56:44;7.13;;;3.37;;
5776;SDS011;2914;42.668;23.346;2022-11-18T14:59:15;6.37;;;2.53;;
5776;SDS011;2914;42.668;23.346;2022-11-18T15:01:46;17.43;;;4.10;;
5776;SDS011;2914;42.668;23.346;2022-11-18T15:04:15;2.50;;;2.30;;
5776;SDS011;2914;42.668;23.346;2022-11-18T15:06:46;10.43;;;2.93;;
5776;SDS011;2914;42.668;23.346;2022-11-18T15:09:15;3.20;;;2.40;;
5776;SDS011;2914;42.668;23.346;2022-11-18T15:11:45;16.87;;;3.97;;
5776;SDS011;2914;42.668;23.346;2022-11-18T15:14:14;6.77;;;3.60;;
5776;SDS011;2914;42.668;23.346;2022-11-18T15:16:43;17.37;;;4.57;;
5776;SDS011;2914;42.668;23.346;2022-11-18T15:19:13;5.70;;;2.73;;
5776;SDS011;2914;42.668;23.346;2022-11-18T15:21:42;17.17;;;4.33;;
5776;SDS011;2914;42.668;23.346;2022-11-18T15:24:11;7.50;;;2.93;;